Map

Track Data

SID SEASON NUMBER BASIN SUBBASIN NAME ISO_TIME NATURE LAT LON WMO_WIND WMO_PRES WMO_AGENCY TRACK_TYPE DIST2LAND LANDFALL IFLAG USA_AGENCY USA_ATCF_ID USA_LAT USA_LON USA_RECORD USA_STATUS USA_WIND USA_PRES USA_SSHS USA_R34_NE USA_R34_SE USA_R34_SW USA_R34_NW USA_R50_NE USA_R50_SE USA_R50_SW USA_R50_NW USA_R64_NE USA_R64_SE USA_R64_SW USA_R64_NW USA_POCI USA_ROCI USA_RMW USA_EYE TOKYO_LAT TOKYO_LON TOKYO_GRADE TOKYO_WIND TOKYO_PRES TOKYO_R50_DIR TOKYO_R50_LONG TOKYO_R50_SHORT TOKYO_R30_DIR TOKYO_R30_LONG TOKYO_R30_SHORT TOKYO_LAND CMA_LAT CMA_LON CMA_CAT CMA_WIND CMA_PRES HKO_LAT HKO_LON HKO_CAT HKO_WIND HKO_PRES NEWDELHI_LAT NEWDELHI_LON NEWDELHI_GRADE NEWDELHI_WIND NEWDELHI_PRES NEWDELHI_CI NEWDELHI_DP NEWDELHI_POCI REUNION_LAT REUNION_LON REUNION_TYPE REUNION_WIND REUNION_PRES REUNION_TNUM REUNION_CI REUNION_RMW REUNION_R34_NE REUNION_R34_SE REUNION_R34_SW REUNION_R34_NW REUNION_R50_NE REUNION_R50_SE REUNION_R50_SW REUNION_R50_NW REUNION_R64_NE REUNION_R64_SE REUNION_R64_SW REUNION_R64_NW BOM_LAT BOM_LON BOM_TYPE BOM_WIND BOM_PRES BOM_TNUM BOM_CI BOM_RMW BOM_R34_NE BOM_R34_SE BOM_R34_SW BOM_R34_NW BOM_R50_NE BOM_R50_SE BOM_R50_SW BOM_R50_NW BOM_R64_NE BOM_R64_SE BOM_R64_SW BOM_R64_NW BOM_ROCI BOM_POCI BOM_EYE BOM_POS_METHOD BOM_PRES_METHOD NADI_LAT NADI_LON NADI_CAT NADI_WIND NADI_PRES WELLINGTON_LAT WELLINGTON_LON WELLINGTON_WIND WELLINGTON_PRES DS824_LAT DS824_LON DS824_STAGE DS824_WIND DS824_PRES TD9636_LAT TD9636_LON TD9636_STAGE TD9636_WIND TD9636_PRES TD9635_LAT TD9635_LON TD9635_WIND TD9635_PRES TD9635_ROCI NEUMANN_LAT NEUMANN_LON NEUMANN_CLASS NEUMANN_WIND NEUMANN_PRES MLC_LAT MLC_LON MLC_CLASS MLC_WIND MLC_PRES USA_GUST BOM_GUST BOM_GUST_PER REUNION_GUST REUNION_GUST_PER USA_SEAHGT USA_SEARAD_NE USA_SEARAD_SE USA_SEARAD_SW USA_SEARAD_NW STORM_SPEED STORM_DIR
1966261N13158 1966 81 WP MM IDA 1966-09-18 00:00:00 TS 13.3000 158.300 main 1970 1952 __O___________ -1 13.3000 158.300 0 1008 8 270
1966261N13158 1966 81 WP MM IDA 1966-09-18 03:00:00 TS 13.3027 157.915 main 1952 1939 __P___________ -1 13.3027 157.915 0 1008 7 270
1966261N13158 1966 81 WP MM IDA 1966-09-18 06:00:00 TS 13.3000 157.600 main 1939 1931 __O___________ -1 13.3000 157.600 0 1008 5 269
1966261N13158 1966 81 WP MM IDA 1966-09-18 09:00:00 TS 13.2924 157.392 main 1931 1922 __P___________ -1 13.2924 157.392 0 1008 4 270
1966261N13158 1966 81 WP MM IDA 1966-09-18 12:00:00 TS 13.3000 157.200 main 1922 1911 __O___________ -1 13.3000 157.200 0 1008 5 276
1966261N13158 1966 81 WP MM IDA 1966-09-18 15:00:00 TS 13.3426 156.900 main 1911 1910 __P___________ -1 13.3426 156.900 0 1007 6 280
1966261N13158 1966 81 WP MM IDA 1966-09-18 18:00:00 TS 13.4000 156.600 main 1910 1903 __O___________ -1 13.4000 156.600 0 1006 5 282
1966261N13158 1966 81 WP MM IDA 1966-09-18 21:00:00 TS 13.4424 156.400 main 1903 1903 __P___________ -1 13.4424 156.400 0 1006 4 284
1966261N13158 1966 81 WP MM IDA 1966-09-19 00:00:00 TS 13.5000 156.200 main 1907 1903 __O___________ -1 13.5000 156.200 0 1006 5 288
1966261N13158 1966 81 WP MM IDA 1966-09-19 03:00:00 TS 13.6001 155.900 main 1907 1904 __P___________ -1 13.6001 155.900 0 1006 6 289
1966261N13158 1966 81 WP MM IDA 1966-09-19 06:00:00 TS 13.7000 155.600 main 1909 1903 __O___________ -1 13.7000 155.600 0 1006 5 287
1966261N13158 1966 81 WP MM IDA 1966-09-19 09:00:00 TS 13.7499 155.400 main 1903 1903 __P___________ -1 13.7499 155.400 0 1006 4 284
1966261N13158 1966 81 WP MM IDA 1966-09-19 12:00:00 TS 13.8000 155.200 main 1908 1903 __O___________ -1 13.8000 155.200 0 1006 5 286
1966261N13158 1966 81 WP MM IDA 1966-09-19 15:00:00 TS 13.8926 154.900 main 1911 1906 __P___________ -1 13.8926 154.900 0 1006 6 289
1966261N13158 1966 81 WP MM IDA 1966-09-19 18:00:00 TS 14.0000 154.600 main 1914 1912 __O___________ -1 14.0000 154.600 0 1006 5 294
1966261N13158 1966 81 WP MM IDA 1966-09-19 21:00:00 TS 14.1074 154.400 main 1921 1919 __P___________ -1 14.1074 154.400 0 1006 4 297
1966261N13158 1966 81 WP MM IDA 1966-09-20 00:00:00 TS 14.2000 154.200 main 1928 1922 __O___________ -1 14.2000 154.200 0 1006 5 286
1966261N13158 1966 81 WP MM IDA 1966-09-20 03:00:00 TS 14.2501 153.892 main 1933 1927 __P___________ -1 14.2501 153.892 0 1006 6 280
1966261N13158 1966 81 WP MM IDA 1966-09-20 06:00:00 TS 14.3000 153.600 main 1927 1926 __O___________ -1 14.3000 153.600 0 1006 5 287
1966261N13158 1966 81 WP MM IDA 1966-09-20 09:00:00 TS 14.3849 153.450 main 1935 1935 __P___________ -1 14.3849 153.450 0 1005 4 304
1966261N13158 1966 81 WP MM IDA 1966-09-20 12:00:00 TS 14.5000 153.300 main 1945 1943 __O___________ -1 14.5000 153.300 0 1004 5 301
1966261N13158 1966 81 WP MM IDA 1966-09-20 15:00:00 TS 14.6501 153.000 main 1963 1960 __P___________ -1 14.6501 153.000 0 1004 7 297
1966261N13158 1966 81 WP MM IDA 1966-09-20 18:00:00 TS 14.8000 152.700 main 1970 1969 __O___________ -1 14.8000 152.700 0 1004 5 299
1966261N13158 1966 81 WP MM IDA 1966-09-20 21:00:00 TS 14.8924 152.542 main 1979 1979 __P___________ -1 14.8924 152.542 0 1004 4 304
1966261N13158 1966 81 WP MM IDA 1966-09-21 00:00:00 TS 15.0000 152.400 main 1989 1988 __O___________ -1 15.0000 152.400 0 1004 5 309
1966261N13158 1966 81 WP MM IDA 1966-09-21 03:00:00 TS 15.1850 152.173 main 2008 2005 __P___________ -1 15.1850 152.173 0 1003 6 310
1966261N13158 1966 81 WP MM IDA 1966-09-21 06:00:00 TS 15.4000 151.900 main 2022 2019 __O___________ -1 15.4000 151.900 0 1002 7 307
1966261N13158 1966 81 WP MM IDA 1966-09-21 09:00:00 TS 15.5925 151.615 main 2035 2033 __P___________ -1 15.5925 151.615 0 1002 7 305
1966261N13158 1966 81 WP MM IDA 1966-09-21 12:00:00 TS 15.8000 151.300 main 2050 2048 __O___________ -1 15.8000 151.300 0 1002 8 305
1966261N13158 1966 81 WP MM IDA 1966-09-21 15:00:00 TS 16.0350 150.957 main 2065 2063 __P___________ -1 16.0350 150.957 0 1001 8 307
1966261N13158 1966 81 WP MM IDA 1966-09-21 18:00:00 TS 16.3000 150.600 main 2090 2090 __O___________ -1 16.3000 150.600 0 1000 9 310
1966261N13158 1966 81 WP MM IDA 1966-09-21 21:00:00 TS 16.5924 150.265 main 2118 2109 __P___________ -1 16.5924 150.265 0 1000 2 330
1966261N13158 1966 81 WP MM IDA 1966-09-22 00:00:00 TS 16.4600 150.500 1000 tokyo main 2111 2109 OOOO_____OOO__ jtwc_wp WP231966 16.2000 150.700 35 0 16.0000 152.000 2 1000 0 0 0 16.9000 149.900 1 29 1000 16.2000 150.600 TD 30 992 16.2000 150.700 TC 35 16.2000 150.700 2 35 16.2000 150.700 35 994 120 3 316
1966261N13158 1966 81 WP MM IDA 1966-09-22 03:00:00 TS 16.8319 150.023 main 2136 2136 PPPP_____PPP__ WP231966 16.7502 150.095 40 0 16.4703 151.050 2 999 0 0 17.1845 149.517 1 29 999 16.7582 149.806 TD 35 990 16.7502 150.095 TC 40 16.8072 150.006 2 41 16.7502 150.095 40 991 120 14 307
1966261N13158 1966 81 WP MM IDA 1966-09-22 06:00:00 TS 17.3065 149.338 998 tokyo main 2175 2090 OOOO_____OPO__ jtwc_wp WP231966 17.3000 149.400 45 0 17.0000 150.000 2 998 0 0 0 17.5000 149.000 1 29 998 17.3000 149.000 TS 40 989 17.3000 149.400 TC 45 17.3809 149.278 2 47 17.3000 149.400 45 989 120 18 304
1966261N13158 1966 81 WP MM IDA 1966-09-22 09:00:00 TS 17.8177 148.483 main 2090 2003 PPPP_____PPP__ WP231966 17.8373 148.553 52 0 17.6153 148.801 2 994 0 0 17.8925 148.268 1 33 991 17.8145 148.172 TS 47 986 17.8373 148.553 TC 52 17.8893 148.486 2 53 17.8373 148.553 52 986 120 20 300
1966261N13158 1966 81 WP MM IDA 1966-09-22 12:00:00 TS 18.2857 147.529 990 tokyo main 1999 1936 OOOO_____OOO__ jtwc_wp WP231966 18.3000 147.600 60 0 18.2000 147.600 9 990 0 0 0 18.3000 147.400 2 38 984 18.3000 147.300 STS 55 984 18.3000 147.600 TC 60 18.3000 147.600 2 60 18.3000 147.600 60 984 120 20 294
1966261N13158 1966 81 WP MM IDA 1966-09-22 15:00:00 TS 18.6409 146.554 main 1936 1862 PPPP_____PPP__ WP231966 18.6148 146.607 67 1 18.6214 146.569 9 986 0 0 18.6497 146.522 2 43 981 18.7648 146.357 STS 60 982 18.6148 146.607 TC 67 18.6057 146.613 2 67 18.6148 146.607 67 981 120 20 290
1966261N13158 1966 81 WP MM IDA 1966-09-22 18:00:00 TS 18.9714 145.571 982 tokyo main 1862 1804 OOOO_____OOO__ jtwc_wp WP231966 18.9000 145.600 75 1 19.0000 145.600 9 982 0 0 0 19.0000 145.600 3 48 978 19.2000 145.400 T 65 980 18.9000 145.600 TC 75 18.9000 145.600 3 75 18.9000 145.600 75 978 120 20 291
1966261N13158 1966 81 WP MM IDA 1966-09-22 21:00:00 TS 19.3354 144.598 main 1800 1708 PPPP_____PPP__ WP231966 19.2472 144.619 77 1 19.4274 144.570 9 979 0 0 19.3549 144.642 3 53 976 19.5695 144.491 T 67 977 19.2472 144.619 TC 77 19.2540 144.626 3 77 19.2472 144.619 77 976 150 20 294
1966261N13158 1966 81 WP MM IDA 1966-09-23 00:00:00 TS 19.7857 143.671 976 tokyo main 1708 1622 OOOO_____OOO__ jtwc_wp WP231966 19.7000 143.700 80 1 19.9000 143.600 9 976 0 0 0 19.8000 143.700 3 58 975 20.0000 143.600 T 70 975 19.7000 143.700 TC 80 19.7000 143.700 4 80 19.7000 143.700 80 975 180 20 301
1966261N13158 1966 81 WP MM IDA 1966-09-23 03:00:00 TS 20.3604 142.813 main 1607 1517 PPPP_____PPP__ WP231966 20.2968 142.877 82 1 20.3967 142.769 9 975 0 0 20.3971 142.820 3 58 974 20.5976 142.663 T 72 975 20.2968 142.877 TC 82 20.2411 142.806 4 82 20.2968 142.877 82 973 180 20 309
1966261N13158 1966 81 WP MM IDA 1966-09-23 06:00:00 TS 21.0422 142.010 974 tokyo main 1513 1413 OOOO_____OPO__ jtwc_wp WP231966 21.0000 142.100 85 2 21.0000 142.000 9 974 0 0 0 21.1000 142.000 3 58 973 21.3000 141.800 T 75 975 21.0000 142.100 TC 85 20.8952 141.969 4 85 21.0000 142.100 85 972 180 21 313
1966261N13158 1966 81 WP MM IDA 1966-09-23 09:00:00 TS 21.7669 141.215 main 1399 1300 PPPP_____PPP__ WP231966 21.7125 141.270 87 2 21.7401 141.170 9 974 0 0 21.8197 141.219 3 58 971 22.0193 141.111 T 77 972 21.7125 141.270 TC 87 21.6517 141.197 4 87 21.7125 141.270 87 970 150 21 317
1966261N13158 1966 81 WP MM IDA 1966-09-23 12:00:00 TS 22.5714 140.486 974 tokyo main 1290 1185 OOOO_____OOO__ jtwc_wp WP231966 22.5000 140.500 90 2 22.6000 140.400 9 974 0 0 0 22.6000 140.500 3 58 970 22.8000 140.500 T 80 970 22.5000 140.500 TC 90 22.5000 140.500 4 90 22.5000 140.500 90 969 120 21 322
1966261N13158 1966 81 WP MM IDA 1966-09-23 15:00:00 TS 23.4135 139.822 main 1182 1071 PPPP_____PPP__ WP231966 23.3471 139.854 92 2 23.5121 139.747 9 972 0 0 23.4050 139.797 3 63 968 23.6198 139.842 T 82 967 23.3471 139.854 TC 92 23.3166 139.805 4 92 23.3471 139.854 92 968 120 21 327
1966261N13158 1966 81 WP MM IDA 1966-09-23 18:00:00 TS 24.3473 139.242 970 tokyo main 1068 946 OOOO_____OPO__ jtwc_wp WP231966 24.3000 139.300 95 2 24.5000 139.200 9 970 0 0 0 24.3000 139.200 4 68 967 24.5000 139.200 ST 85 965 24.3000 139.300 TC 95 24.2310 139.191 4 95 24.3000 139.300 95 967 120 22 332
1966261N13158 1966 81 WP MM IDA 1966-09-23 21:00:00 TS 25.3272 138.698 main 946 817 PPPP_____PPP__ WP231966 25.3176 138.747 97 3 25.4750 138.697 9 967 0 0 25.2448 138.746 4 72 964 25.3380 138.518 ST 87 965 25.3176 138.747 TC 97 25.2797 138.681 4 97 25.3176 138.747 97 965 120 23 338
1966261N13158 1966 81 WP MM IDA 1966-09-24 00:00:00 TS 26.4857 138.271 965 tokyo main 806 659 OOOO_____OOO__ jtwc_wp WP231966 26.5000 138.300 100 3 26.6000 138.300 9 965 0 0 0 26.4000 138.400 4 77 961 26.4000 138.000 ST 90 965 26.5000 138.300 TC 100 26.5000 138.300 4 100 26.5000 138.300 100 963 120 27 345
1966261N13158 1966 81 WP MM IDA 1966-09-24 03:00:00 TS 27.8809 137.947 main 645 484 PPPP_____PPP__ WP231966 27.8526 137.968 100 3 27.9526 137.983 9 962 0 0 27.8602 138.041 4 77 961 27.8948 137.808 ST 90 962 27.8526 137.968 TC 100 27.9008 137.895 4 100 27.8526 137.968 100 966 120 30 352
1966261N13158 1966 81 WP MM IDA 1966-09-24 06:00:00 TS 29.4673 137.777 960 tokyo main 474 321 OOOO_____OPO__ jtwc_wp WP231966 29.4000 137.800 100 3 29.5000 137.800 9 960 0 0 0 29.5000 137.800 4 77 961 29.6000 137.800 ST 90 960 29.4000 137.800 TC 100 29.4709 137.639 4 100 29.4000 137.800 100 970 120 33 356
1966261N13158 1966 81 WP MM IDA 1966-09-24 09:00:00 TS 31.1398 137.702 main 312 186 PPPP_____PPP__ WP231966 31.1123 137.747 100 3 31.1472 137.676 9 960 0 0 31.1195 137.668 4 67 968 31.2198 137.721 ST 90 965 31.1123 137.747 TC 100 31.1554 137.611 4 100 31.1123 137.747 100 976 120 34 1
1966261N13158 1966 81 WP MM IDA 1966-09-24 12:00:00 TS 32.8857 137.857 960 tokyo main 181 14 OOOO_____OOO__ jtwc_wp WP231966 32.9000 137.900 100 3 32.9000 137.800 9 960 0 0 0 32.8000 137.800 3 58 975 32.9000 137.800 ST 90 970 32.9000 137.900 TC 100 32.9000 137.900 4 100 32.9000 137.900 100 982 120 35 6
1966261N13158 1966 81 WP MM IDA 1966-09-24 15:00:00 TS 34.6244 138.170 main 0 0 PPPP_____PPP__ WP231966 34.5887 138.107 85 2 34.7413 138.143 9 966 0 0 34.5164 138.140 3 53 980 34.6892 138.012 ST 77 976 34.5887 138.107 TC 85 34.6583 138.574 4 87 34.5887 138.107 85 987 90 36 14
1966261N13158 1966 81 WP MM IDA 1966-09-24 18:00:00 TS 36.3673 138.941 972 tokyo main 0 0 OOOO_____OPO__ jtwc_wp WP231966 36.3000 138.800 70 1 36.5000 139.000 9 972 0 0 0 36.3000 139.000 3 48 985 36.5000 138.700 T 65 982 36.3000 138.800 TC 70 36.4166 139.586 4 75 36.3000 138.800 70 993 60 40 27
1966261N13158 1966 81 WP MM IDA 1966-09-24 21:00:00 TS 38.1962 140.399 main 0 0 PPPP_____PPP__ WP231966 38.1812 140.244 60 0 38.0680 140.569 9 985 0 0 38.3639 140.612 3 43 991 38.2365 140.109 T 55 993 38.1812 140.244 TC 60 38.1669 140.858 4 62 38.1812 140.244 60 999 60 44 38
1966261N13158 1966 81 WP MM IDA 1966-09-25 00:00:00 MX 39.8048 142.381 998 tokyo main 34 34 OOOO_____OOO__ jtwc_wp WP231966 39.9000 142.300 50 0 39.3000 142.500 6 998 0 0 0 40.0000 142.600 9 38 998 39.9000 142.000 TS 45 1004 39.9000 142.300 TC 50 39.9000 142.300 2 50 39.9000 142.300 50 1005 60 42 50
1966261N13158 1966 81 WP MM IDA 1966-09-25 03:00:00 MX 40.9176 144.645 main 160 160 PPP______P_P__ WP231966 41.3718 144.959 50 0 40.1859 144.291 6 999 0 0 40.6023 144.361 9 33 999 TS 41.3718 144.959 TC 50 2 41.1953 144.668 50 1006 60 36 62
1966261N13158 1966 81 WP MM IDA 1966-09-25 06:00:00 MX 41.4941 146.635 1000 tokyo main 209 209 OOO______O_O__ jtwc_wp WP231966 42.2000 147.200 50 0 40.7000 146.000 6 1000 0 0 0 40.7000 146.000 9 29 1000 42.2000 147.200 TC 50 2 42.2000 147.200 50 1007 60 23 75
1966261N13158 1966 81 WP MM IDA 1966-09-25 09:00:00 MX 41.5084 147.654 main 261 261 PPP______P____ WP231966 42.0902 147.733 42 0 40.9527 147.580 6 1001 0 0 40.9006 147.569 9 29 1001 42.0902 147.733 TC 42 2 13 96
1966261N13158 1966 81 WP MM IDA 1966-09-25 12:00:00 MX 41.3500 148.350 1002 tokyo main 310 318 OOO______O____ jtwc_wp WP231966 41.7000 147.700 35 0 41.0000 149.000 6 1002 0 0 0 41.0000 149.000 9 29 1002 41.7000 147.700 TC 35 12 96
1966261N13158 1966 81 WP MM IDA 1966-09-25 15:00:00 MX 41.3791 149.301 main 369 369 PPP______P____ WP231966 41.7383 148.313 30 -1 41.0198 150.289 6 1002 0 0 41.0198 150.289 9 29 1002 41.7383 148.313 TC 30 16 87
1966261N13158 1966 81 WP MM IDA 1966-09-25 18:00:00 MX 41.4286 150.429 1002 tokyo main 439 439 OOO______O____ jtwc_wp WP231966 42.0000 149.000 25 -1 41.0000 151.500 6 1002 0 0 0 41.0000 151.500 9 29 1002 42.0000 149.000 TC 25 18 87
1966261N13158 1966 81 WP MM IDA 1966-09-25 21:00:00 MX 41.4831 151.708 main 482 482 PPP______P____ WP231966 42.4497 149.549 22 -1 40.9998 152.787 6 1002 0 0 40.9998 152.787 9 29 1002 42.4497 149.549 TC 22 19 88
1966261N13158 1966 81 WP MM IDA 1966-09-26 00:00:00 MX 41.5000 153.000 1002 tokyo main 527 527 OOO______O____ jtwc_wp WP231966 43.0000 150.000 20 -1 41.0000 154.000 6 1002 0 0 0 41.0000 154.000 9 29 1002 43.0000 150.000 TC 20 25 101
1966261N13158 1966 81 WP MM IDA 1966-09-26 03:00:00 ET 41.0008 155.050 main 671 666 _PP___________ WP231966 -1 41.0008 155.050 6 1004 0 0 41.0008 155.050 9 1004 TC 23 102
1966261N13158 1966 81 WP MM IDA 1966-09-26 06:00:00 ET 41.0000 156.000 1006 tokyo main 719 _OO___________ -1 41.0000 156.000 6 1006 0 0 0 41.0000 156.000 9 1006 14 90

Digital Typhoon Data and Search

About IBTrACS Database

This database is a web-friendly format of International Best Track Archive for Climate Stewardship (IBTrACS), a global best track data archive curated by NOAA dating back to 1842.

Updated: 2021-11-26